createdAt,value
2023-03-02T00:01:10.520Z,63.80
2023-03-02T00:04:17.784Z,61.07
2023-03-02T00:07:24.773Z,59.39
2023-03-02T00:10:27.247Z,61.28
2023-03-02T00:13:31.200Z,66.26
2023-03-02T00:16:35.135Z,64.20
2023-03-02T00:19:39.797Z,60.40
2023-03-02T00:22:44.717Z,60.58
2023-03-02T00:25:47.544Z,60.69
2023-03-02T00:28:49.531Z,59.52
2023-03-02T00:31:52.071Z,58.56
2023-03-02T00:34:55.186Z,64.73
2023-03-02T00:37:57.580Z,62.52
2023-03-02T00:40:59.675Z,63.34
2023-03-02T00:44:02.183Z,65.37
2023-03-02T00:47:04.224Z,66.29
2023-03-02T00:50:08.077Z,66.62
2023-03-02T00:53:11.682Z,63.74
2023-03-02T00:56:14.403Z,63.25
2023-03-02T00:59:28.554Z,60.06
2023-03-02T01:02:44.543Z,61.61
2023-03-02T01:05:55.525Z,60.88
2023-03-02T01:08:58.390Z,62.47
2023-03-02T01:12:02.279Z,60.73
2023-03-02T01:15:05.674Z,62.04
2023-03-02T01:18:07.655Z,63.50
2023-03-02T01:21:15.919Z,61.25
2023-03-02T01:24:18.045Z,62.05
2023-03-02T01:27:20.974Z,64.22
2023-03-02T01:30:23.144Z,60.98
2023-03-02T01:33:26.086Z,60.14
2023-03-02T01:36:28.103Z,62.82
2023-03-02T01:39:31.205Z,63.88
2023-03-02T01:42:47.435Z,63.17
2023-03-02T01:45:54.724Z,63.45
2023-03-02T01:49:14.910Z,61.22
2023-03-02T01:52:32.350Z,61.71
2023-03-02T01:55:39.107Z,61.21
2023-03-02T01:58:42.206Z,62.62
2023-03-02T02:01:47.378Z,62.09
2023-03-02T02:04:51.286Z,62.48
2023-03-02T02:07:53.748Z,61.11
2023-03-02T02:10:56.824Z,62.63
2023-03-02T02:14:01.020Z,60.97
2023-03-02T02:17:03.885Z,60.15
2023-03-02T02:20:19.851Z,60.85
2023-03-02T02:23:28.012Z,62.08
2023-03-02T02:26:42.256Z,62.54
2023-03-02T02:29:48.555Z,62.63
2023-03-02T02:32:54.256Z,61.40
2023-03-02T02:36:08.736Z,59.75
2023-03-02T02:39:29.197Z,58.15
2023-03-02T02:42:36.286Z,61.05
2023-03-02T02:45:38.665Z,60.13
2023-03-02T02:48:41.264Z,60.57
2023-03-02T02:51:43.628Z,60.15
2023-03-02T02:54:49.388Z,63.35
2023-03-02T02:57:57.777Z,61.24
2023-03-02T03:01:01.008Z,61.14
2023-03-02T03:04:06.606Z,60.57
2023-03-02T03:07:19.674Z,61.15
2023-03-02T03:10:39.994Z,60.59
2023-03-02T03:13:44.361Z,59.24
2023-03-02T03:16:49.033Z,56.46
2023-03-02T03:19:51.563Z,59.24
2023-03-02T03:22:54.361Z,60.06
2023-03-02T03:25:58.076Z,62.69
2023-03-02T03:29:00.696Z,60.17
2023-03-02T03:32:04.828Z,63.00
2023-03-02T03:35:08.971Z,59.94
2023-03-02T03:38:12.544Z,57.65
2023-03-02T03:41:15.606Z,56.71
2023-03-02T03:44:18.538Z,60.99
2023-03-02T03:47:20.857Z,60.06
2023-03-02T03:50:25.641Z,59.93
2023-03-02T03:53:29.538Z,58.88
2023-03-02T03:56:36.039Z,62.42
2023-03-02T03:59:38.981Z,61.99
2023-03-02T04:02:42.279Z,62.92
2023-03-02T04:05:48.477Z,61.03
2023-03-02T04:08:52.218Z,59.98
2023-03-02T04:11:57.933Z,60.19
2023-03-02T04:15:03.345Z,60.13
2023-03-02T04:18:06.153Z,60.02
2023-03-02T04:21:10.258Z,58.34
2023-03-02T04:24:14.669Z,59.98
2023-03-02T04:27:18.623Z,61.68
2023-03-02T04:30:25.097Z,62.94
2023-03-02T04:33:28.194Z,61.77
2023-03-02T04:36:32.822Z,58.88
2023-03-02T04:39:37.823Z,60.89
2023-03-02T04:42:40.126Z,60.98
2023-03-02T04:45:42.945Z,61.95
2023-03-02T04:48:45.206Z,61.72
2023-03-02T04:51:49.497Z,60.62
2023-03-02T04:54:52.481Z,63.15
2023-03-02T04:57:56.335Z,61.61
2023-03-02T05:01:02.585Z,57.47
2023-03-02T05:04:05.354Z,60.44
2023-03-02T05:07:07.768Z,62.55
2023-03-02T05:10:15.539Z,63.40
2023-03-02T05:13:17.533Z,61.25
2023-03-02T05:16:21.528Z,61.32
2023-03-02T05:19:23.810Z,62.18
2023-03-02T05:22:26.686Z,62.30
2023-03-02T05:25:31.490Z,64.13
2023-03-02T05:28:34.664Z,61.97
2023-03-02T05:31:40.329Z,60.72
2023-03-02T05:34:42.952Z,62.80
2023-03-02T05:37:45.133Z,61.94
2023-03-02T05:40:48.213Z,59.43
2023-03-02T05:43:50.304Z,60.60
2023-03-02T05:46:52.802Z,59.96
2023-03-02T05:49:54.862Z,57.28
2023-03-02T05:53:00.326Z,58.41
2023-03-02T05:56:02.637Z,60.90
2023-03-02T05:59:05.887Z,62.37
2023-03-02T06:02:08.046Z,60.88
2023-03-02T06:05:13.937Z,60.14
2023-03-02T06:08:16.858Z,60.24
2023-03-02T06:11:20.128Z,58.71
2023-03-02T06:14:22.179Z,58.88
2023-03-02T06:17:24.540Z,58.74
2023-03-02T06:20:27.468Z,56.47
2023-03-02T06:23:30.274Z,57.79
2023-03-02T06:26:32.629Z,60.45
2023-03-02T06:29:35.640Z,59.89
2023-03-02T06:32:38.162Z,60.03
2023-03-02T06:35:40.993Z,58.82
2023-03-02T06:38:43.023Z,59.63
2023-03-02T06:41:48.282Z,58.11
2023-03-02T06:44:51.966Z,60.64
2023-03-02T06:47:55.563Z,60.25
2023-03-02T06:50:57.616Z,60.45
2023-03-02T06:54:00.410Z,64.48
2023-03-02T06:57:02.834Z,60.84
2023-03-02T07:00:10.301Z,64.11
2023-03-02T07:03:15.356Z,63.93
2023-03-02T07:06:19.407Z,63.77
2023-03-02T07:09:22.377Z,64.21
2023-03-02T07:12:24.914Z,64.80
2023-03-02T07:15:26.969Z,65.86
2023-03-02T07:18:29.686Z,64.29
2023-03-02T07:21:31.963Z,62.13
2023-03-02T07:24:35.601Z,61.50
2023-03-02T07:27:38.696Z,62.11
2023-03-02T07:30:41.915Z,63.61
2023-03-02T07:33:44.138Z,60.92
2023-03-02T07:36:46.527Z,62.96
2023-03-02T07:39:49.447Z,66.37
2023-03-02T07:42:52.227Z,65.66
2023-03-02T07:45:54.730Z,66.44
2023-03-02T07:48:59.501Z,62.55
2023-03-02T07:52:03.244Z,64.79
2023-03-02T07:55:07.221Z,67.23
2023-03-02T07:58:09.621Z,67.65
2023-03-02T08:01:12.921Z,66.19
2023-03-02T08:04:15.665Z,66.64
2023-03-02T08:07:19.210Z,62.60
2023-03-02T08:10:21.341Z,64.27
2023-03-02T08:13:24.112Z,61.31
2023-03-02T08:16:26.756Z,60.83
2023-03-02T08:19:29.669Z,62.16
2023-03-02T08:22:31.746Z,62.08
2023-03-02T08:25:34.270Z,61.25
2023-03-02T08:28:36.833Z,60.41
2023-03-02T08:31:39.727Z,59.96
2023-03-02T08:34:41.842Z,62.06
2023-03-02T08:37:45.046Z,60.53
2023-03-02T08:40:47.375Z,61.57
2023-03-02T08:43:50.424Z,64.79
2023-03-02T08:46:52.671Z,63.58
2023-03-02T08:49:55.052Z,63.34
2023-03-02T08:52:57.403Z,62.05
2023-03-02T08:56:00.562Z,64.03
2023-03-02T08:59:06.027Z,64.07
2023-03-02T09:02:14.964Z,63.04
2023-03-02T09:05:17.339Z,63.70
2023-03-02T09:08:21.245Z,61.56
2023-03-02T09:11:23.838Z,63.00
2023-03-02T09:14:26.317Z,60.74
2023-03-02T09:17:28.842Z,61.65
2023-03-02T09:20:32.357Z,61.31
2023-03-02T09:23:37.137Z,62.60
2023-03-02T09:26:39.730Z,61.68
2023-03-02T09:29:42.326Z,64.69
2023-03-02T09:32:45.147Z,64.58
2023-03-02T09:35:48.266Z,63.39
2023-03-02T09:38:52.591Z,65.00
2023-03-02T09:42:22.040Z,66.95
2023-03-02T09:45:47.868Z,62.35
2023-03-02T09:49:09.174Z,63.02
2023-03-02T09:52:32.665Z,63.12
2023-03-02T09:55:36.825Z,63.04
2023-03-02T09:58:39.795Z,63.58
2023-03-02T10:01:52.409Z,63.15
2023-03-02T10:04:57.612Z,66.24
2023-03-02T10:08:00.574Z,65.72
2023-03-02T10:11:06.446Z,64.98
2023-03-02T10:14:18.285Z,65.47
2023-03-02T10:17:38.893Z,65.43
2023-03-02T10:21:00.917Z,66.93
2023-03-02T10:24:10.601Z,64.06
2023-03-02T10:27:26.858Z,63.24
2023-03-02T10:30:38.049Z,62.74
2023-03-02T10:33:42.199Z,65.26
2023-03-02T10:36:47.825Z,65.20
2023-03-02T10:39:49.824Z,64.36
2023-03-02T10:42:53.021Z,61.04
2023-03-02T10:46:05.437Z,64.02
2023-03-02T10:49:27.253Z,65.17
2023-03-02T10:52:29.747Z,61.95
2023-03-02T10:55:33.658Z,64.11
2023-03-02T10:58:35.643Z,60.62
2023-03-02T11:01:38.257Z,61.61
2023-03-02T11:04:40.582Z,61.44
2023-03-02T11:07:52.489Z,65.88
2023-03-02T11:11:00.877Z,65.46
2023-03-02T11:14:18.186Z,65.03
2023-03-02T11:17:37.513Z,63.25
2023-03-02T11:20:44.571Z,63.70
2023-03-02T11:24:19.660Z,65.92
2023-03-02T11:27:27.796Z,62.87
2023-03-02T11:30:35.005Z,63.81
2023-03-02T11:34:11.598Z,62.90
2023-03-02T11:37:26.257Z,63.06
2023-03-02T11:40:56.041Z,62.69
2023-03-02T11:44:07.814Z,65.04
2023-03-02T11:47:12.568Z,63.23
2023-03-02T11:50:16.698Z,63.56
2023-03-02T11:53:19.938Z,64.50
2023-03-02T11:56:22.879Z,65.54
2023-03-02T11:59:28.544Z,65.15
2023-03-02T12:02:31.544Z,64.69
2023-03-02T12:05:38.075Z,63.51
2023-03-02T12:08:43.221Z,62.70
2023-03-02T12:11:46.479Z,61.64
2023-03-02T12:14:48.845Z,62.72
2023-03-02T12:17:52.460Z,65.08
2023-03-02T12:21:00.376Z,65.08
2023-03-02T12:24:04.497Z,63.98
2023-03-02T12:27:27.912Z,62.22
2023-03-02T12:30:32.299Z,62.41
2023-03-02T12:33:48.649Z,61.95
2023-03-02T12:36:55.100Z,61.56
2023-03-02T12:40:15.726Z,61.25
2023-03-02T12:43:24.896Z,59.35
2023-03-02T12:46:34.779Z,60.65
2023-03-02T12:49:53.704Z,63.34
2023-03-02T12:53:07.114Z,61.88
2023-03-02T12:56:09.964Z,61.79
2023-03-02T12:59:21.753Z,64.68
2023-03-02T13:02:35.019Z,63.84
2023-03-02T13:05:38.145Z,60.84
2023-03-02T13:08:44.751Z,60.87
2023-03-02T13:11:49.969Z,64.94
2023-03-02T13:14:57.282Z,61.31
2023-03-02T13:18:01.553Z,61.10
2023-03-02T13:21:05.502Z,60.07
2023-03-02T13:24:27.476Z,63.04
2023-03-02T13:27:30.594Z,65.10
2023-03-02T13:30:33.485Z,68.61
2023-03-02T13:33:47.100Z,65.81
2023-03-02T13:36:50.284Z,64.72
2023-03-02T13:39:59.070Z,68.27
2023-03-02T13:43:01.826Z,69.59
2023-03-02T13:46:13.494Z,64.82
2023-03-02T13:49:29.886Z,63.04
2023-03-02T13:52:32.364Z,63.44
2023-03-02T13:55:35.162Z,62.37
2023-03-02T13:58:39.582Z,63.80
2023-03-02T14:01:44.318Z,65.72
2023-03-02T14:04:47.083Z,62.62
2023-03-02T14:07:49.190Z,62.97
2023-03-02T14:10:55.302Z,63.26
2023-03-02T14:13:57.483Z,62.77
2023-03-02T14:17:00.358Z,63.99
2023-03-02T14:20:03.054Z,63.13
2023-03-02T14:23:07.630Z,63.64
2023-03-02T14:26:30.846Z,63.22
2023-03-02T14:29:39.004Z,62.91
2023-03-02T14:32:41.133Z,60.45
2023-03-02T14:35:44.858Z,61.16
2023-03-02T14:38:47.663Z,61.67
2023-03-02T14:41:54.086Z,60.12
2023-03-02T14:44:57.495Z,60.87
2023-03-02T14:48:01.034Z,60.06
2023-03-02T14:51:04.418Z,59.82
2023-03-02T14:54:10.038Z,59.06
2023-03-02T14:57:18.743Z,61.12
2023-03-02T15:00:22.531Z,59.72
2023-03-02T15:03:26.066Z,61.20
2023-03-02T15:06:30.884Z,61.12
2023-03-02T15:09:33.126Z,59.80
2023-03-02T15:12:35.799Z,60.25
2023-03-02T15:15:39.432Z,58.64
2023-03-02T15:18:42.368Z,58.89
2023-03-02T15:21:46.908Z,57.75
2023-03-02T15:24:49.727Z,57.95
2023-03-02T15:27:53.714Z,60.02
2023-03-02T15:30:57.270Z,58.43
2023-03-02T15:34:00.860Z,60.02
2023-03-02T15:37:04.245Z,58.66
2023-03-02T15:40:07.437Z,59.74
2023-03-02T15:43:10.570Z,58.13
2023-03-02T15:46:12.789Z,58.82
2023-03-02T15:49:16.731Z,59.10
2023-03-02T15:52:20.402Z,58.78
2023-03-02T15:55:22.891Z,57.89
2023-03-02T15:58:25.218Z,58.59
2023-03-02T16:01:27.855Z,57.67
2023-03-02T16:04:31.875Z,58.90
2023-03-02T16:07:34.616Z,57.08
2023-03-02T16:10:37.116Z,57.90
2023-03-02T16:13:40.068Z,57.64
2023-03-02T16:16:43.946Z,56.99
2023-03-02T16:19:46.717Z,56.21
2023-03-02T16:22:49.112Z,56.38
2023-03-02T16:25:52.754Z,58.38
2023-03-02T16:28:54.954Z,62.47
2023-03-02T16:31:57.984Z,61.44
2023-03-02T16:35:00.255Z,60.71
2023-03-02T16:38:04.473Z,63.96
2023-03-02T16:41:19.148Z,64.92
2023-03-02T16:44:23.286Z,63.17
2023-03-02T16:47:26.438Z,62.67
2023-03-02T16:50:29.302Z,62.72
2023-03-02T16:53:31.622Z,62.35
2023-03-02T16:56:34.670Z,62.48
2023-03-02T16:59:36.709Z,60.34
2023-03-02T17:02:39.530Z,57.58
2023-03-02T17:05:43.780Z,59.18
2023-03-02T17:08:46.552Z,58.83
2023-03-02T17:11:48.754Z,59.30
2023-03-02T17:14:52.122Z,58.48
2023-03-02T17:17:54.441Z,58.87
2023-03-02T17:20:58.716Z,57.06
2023-03-02T17:24:00.941Z,55.77
2023-03-02T17:27:04.263Z,55.42
2023-03-02T17:30:08.513Z,56.32
2023-03-02T17:33:11.420Z,56.95
2023-03-02T17:36:15.468Z,56.31
2023-03-02T17:39:18.182Z,55.56
2023-03-02T17:42:20.946Z,56.81
2023-03-02T17:45:26.429Z,56.49
2023-03-02T17:48:29.170Z,56.15
2023-03-02T17:51:31.944Z,56.44
2023-03-02T17:54:34.511Z,56.00
2023-03-02T17:57:37.816Z,57.51
2023-03-02T18:00:41.193Z,57.89
2023-03-02T18:03:45.304Z,60.32
2023-03-02T18:06:47.844Z,57.40
2023-03-02T18:09:50.311Z,56.64
2023-03-02T18:12:54.375Z,55.96
2023-03-02T18:15:57.089Z,54.74
2023-03-02T18:18:59.225Z,54.57
2023-03-02T18:22:02.157Z,54.26
2023-03-02T18:25:15.209Z,53.82
2023-03-02T18:28:17.697Z,53.73
2023-03-02T18:31:20.851Z,52.44
2023-03-02T18:34:23.579Z,59.19
2023-03-02T18:37:25.696Z,58.03
2023-03-02T18:40:29.162Z,56.92
2023-03-02T18:43:34.963Z,57.85
2023-03-02T18:46:37.646Z,62.06
2023-03-02T18:49:42.765Z,60.98
2023-03-02T18:52:46.568Z,60.90
2023-03-02T18:55:49.467Z,60.86
2023-03-02T18:58:52.848Z,62.55
2023-03-02T19:01:55.031Z,62.49
2023-03-02T19:04:57.565Z,62.22
2023-03-02T19:08:05.063Z,65.48
2023-03-02T19:11:08.638Z,65.42
2023-03-02T19:14:11.750Z,68.13
2023-03-02T19:17:14.437Z,69.42
2023-03-02T19:20:21.480Z,69.76
2023-03-02T19:23:24.196Z,68.80
2023-03-02T19:26:26.438Z,67.52
2023-03-02T19:29:29.632Z,65.23
2023-03-02T19:32:32.168Z,66.56
2023-03-02T19:35:36.377Z,65.23
2023-03-02T19:38:42.100Z,62.12
2023-03-02T19:41:45.081Z,59.93
2023-03-02T19:44:47.661Z,59.16
2023-03-02T19:47:50.616Z,58.12
2023-03-02T19:50:53.227Z,56.27
2023-03-02T19:53:55.932Z,57.14
2023-03-02T19:56:59.463Z,55.96
2023-03-02T20:00:02.026Z,55.84
2023-03-02T20:03:08.603Z,55.67
2023-03-02T20:06:12.366Z,55.89
2023-03-02T20:09:19.807Z,55.56
2023-03-02T20:12:22.471Z,54.65
2023-03-02T20:15:24.982Z,54.22
2023-03-02T20:18:28.345Z,54.58
2023-03-02T20:21:32.407Z,54.72
2023-03-02T20:24:34.851Z,55.22
2023-03-02T20:27:36.882Z,55.11
2023-03-02T20:30:44.093Z,55.54
2023-03-02T20:33:50.625Z,55.17
2023-03-02T20:36:53.516Z,55.45
2023-03-02T20:39:56.528Z,55.24
2023-03-02T20:42:59.261Z,56.46
2023-03-02T20:46:01.958Z,57.19
2023-03-02T20:49:08.598Z,56.50
2023-03-02T20:52:11.419Z,56.68
2023-03-02T20:55:14.983Z,55.90
2023-03-02T20:58:17.457Z,55.25
2023-03-02T21:01:21.226Z,52.64
2023-03-02T21:04:23.874Z,56.47
2023-03-02T21:07:26.524Z,58.30
2023-03-02T21:10:32.503Z,57.02
2023-03-02T21:13:38.599Z,61.06
2023-03-02T21:16:41.511Z,61.19
2023-03-02T21:19:44.190Z,58.37
2023-03-02T21:22:46.595Z,56.49
2023-03-02T21:25:51.031Z,55.67
2023-03-02T21:28:53.397Z,55.18
2023-03-02T21:31:56.175Z,54.22
2023-03-02T21:35:02.550Z,55.32
2023-03-02T21:38:05.946Z,55.36
2023-03-02T21:41:08.084Z,57.64
2023-03-02T21:44:10.522Z,57.63
2023-03-02T21:47:12.834Z,56.92
2023-03-02T21:50:18.750Z,56.05
2023-03-02T21:53:20.960Z,56.58
2023-03-02T21:56:25.021Z,55.20
2023-03-02T21:59:27.151Z,55.02
2023-03-02T22:02:29.510Z,57.56
2023-03-02T22:05:32.082Z,59.56
2023-03-02T22:08:35.698Z,63.91
2023-03-02T22:11:38.854Z,67.82
2023-03-02T22:14:42.225Z,66.51
2023-03-02T22:17:44.829Z,66.86
2023-03-02T22:20:51.718Z,67.76
2023-03-02T22:24:10.572Z,66.72
2023-03-02T22:27:19.210Z,68.46
2023-03-02T22:30:23.280Z,66.19
2023-03-02T22:33:29.800Z,66.01
2023-03-02T22:36:31.929Z,65.05
2023-03-02T22:39:34.990Z,64.73
2023-03-02T22:42:37.055Z,67.87
2023-03-02T22:45:40.710Z,69.42
2023-03-02T22:48:48.405Z,69.82
2023-03-02T22:51:51.644Z,68.77
2023-03-02T22:54:54.134Z,67.66
2023-03-02T22:57:57.106Z,68.20
2023-03-02T23:01:01.366Z,67.24
2023-03-02T23:04:19.340Z,62.31
2023-03-02T23:07:22.410Z,64.60
2023-03-02T23:10:24.857Z,66.11
2023-03-02T23:13:38.526Z,68.34
2023-03-02T23:16:41.248Z,64.98
2023-03-02T23:19:43.731Z,66.45
2023-03-02T23:22:47.042Z,66.02
2023-03-02T23:25:49.759Z,64.72
2023-03-02T23:28:53.284Z,64.75
2023-03-02T23:31:55.747Z,66.21
2023-03-02T23:34:59.119Z,65.55
2023-03-02T23:38:01.745Z,65.32
2023-03-02T23:41:04.359Z,64.55
2023-03-02T23:44:08.178Z,68.75
2023-03-02T23:47:10.799Z,71.37
2023-03-02T23:50:13.721Z,69.62
2023-03-02T23:53:16.293Z,70.04
2023-03-02T23:56:18.591Z,67.20
2023-03-02T23:59:22.357Z,68.06
